#dbistima — V2PX5 — position and weather

sailwx.info

Track history (hours):
 
Tides and Currents Weather Stations Pressure Air Temp Water Temp Dewpoint Dewpoint Depression Visibility Wind Speed Wind Dir Waves Ship Positions

#dbistima

Last reported at 2017-Mar-26 18:33 UTC. Time now 2017-Mar-26 20:58 UTC.
Position N 53°07' E 004°19'.

MMSI: 304010972.

Date/timePositionNaut miles runAvg speedWind from/ knotsBaromVisibWave heightAir tempDewpointWater temp
2017-Mar-26 18:33N 53°07' E 004°19'10 9.9
2017-Mar-26 17:33N 53°15' E 004°28'10 9.7
2017-Mar-26 16:33N 53°24' E 004°35'10 9.5
2017-Mar-26 15:27N 53°31' E 004°49'1011.3
2017-Mar-26 14:32N 53°34' E 005°05'1212.3
2017-Mar-26 13:32N 53°38' E 005°25'1212.2
2017-Mar-26 12:33N 53°42' E 005°44'1311.9
2017-Mar-26 11:27N 53°46' E 006°05'8110.2
2017-Mar-26 03:33N 53°60' E 008°20'1312.8
2017-Mar-26 02:33N 53°55' E 008°40'1111.4
2017-Mar-26 01:33N 53°51' E 008°58'7 6.8
2017-Mar-26 00:33N 53°54' E 009°09'7 6.9
2017-Mar-25 23:33N 53°59' E 009°17'55 5.5
2017-Mar-25 13:32N 54°33' E 010°31'1010.5
2017-Mar-25 12:33N 54°35' E 010°48'1110.6
2017-Mar-25 11:34N 54°36' E 011°06'1110.7
2017-Mar-25 10:34N 54°32' E 011°23'1110.7
2017-Mar-25 09:33N 54°28' E 011°40'1110.9
2017-Mar-25 08:34N 54°27' E 011°59'9 9.1
2017-Mar-25 07:34N 54°31' E 012°12'10 9.6
2017-Mar-25 06:33N 54°39' E 012°21'20 9.9
2017-Mar-25 04:33N 54°49' E 012°51'3110.3
2017-Mar-25 01:31N 54°60' E 013°42'1010.3
2017-Mar-25 00:33N 55°03' E 013°58'10 9.9
2017-Mar-24 23:32N 55°09' E 014°12'1010.4
2017-Mar-24 22:33N 55°17' E 014°23'1010.4
2017-Mar-24 21:33N 55°25' E 014°34'10 9.9
2017-Mar-24 20:33N 55°31' E 014°49'10 9.9
2017-Mar-24 19:34N 55°35' E 015°05'1010.2
2017-Mar-24 18:33N 55°41' E 015°20'10 9.9
2017-Mar-24 17:33N 55°45' E 015°35'10 9.6
2017-Mar-24 16:33N 55°50' E 015°50'10 9.6
2017-Mar-24 15:34N 55°55' E 016°05'9 9.4
2017-Mar-24 14:34N 55°60' E 016°20'9 9.4
2017-Mar-24 13:34N 56°04' E 016°34'9 9.3
2017-Mar-24 12:33N 56°11' E 016°47'10 9.7
2017-Mar-24 11:33N 56°20' E 016°53'  
2017-Mar-21 19:06N 55°59' E 016°34'811.4
2017-Mar-21 18:26N 55°55' E 016°22'1011.4
2017-Mar-21 17:34N 55°51' E 016°06'1111.2
2017-Mar-21 16:33N 55°46' E 015°48'1111.3
2017-Mar-21 15:34N 55°40' E 015°31'1211.7
2017-Mar-21 14:34N 55°35' E 015°12'1211.6
2017-Mar-21 13:33N 55°30' E 014°54'1211.2
2017-Mar-21 12:32N 55°23' E 014°38'1111.3
2017-Mar-21 11:32N 55°14' E 014°25'9 9.6
2017-Mar-21 10:33N 55°10' E 014°10'1311.2
2017-Mar-21 09:26N 55°11' E 013°48'3711.2
2017-Mar-21 06:07N 55°17' E 012°44'5 9.2
2017-Mar-21 05:34N 55°21' E 012°38'1110.8
2017-Mar-21 04:33N 55°32' E 012°42'1110.9
2017-Mar-21 03:33N 55°42' E 012°41'1110.6
2017-Mar-21 02:33N 55°53' E 012°39'1010.3
2017-Mar-21 01:34N 56°03' E 012°38'1010.3
2017-Mar-21 00:34N 56°10' E 012°24'1311.3
2017-Mar-20 23:26N 56°17' E 012°05'69 9.9
2017-Mar-20 16:32N 57°22' E 011°28'9 9.5
2017-Mar-20 15:33N 57°30' E 011°17'1110.7
2017-Mar-20 14:33N 57°34' E 010°58'1010.4
2017-Mar-20 13:33N 57°38' E 010°40'2 2.1
2017-Mar-20 12:33N 57°39' E 010°37'0 0.0
2017-Mar-20 11:30N 57°39' E 010°37'0 0.0
2017-Mar-20 10:30N 57°39' E 010°37'0 0.0
2017-Mar-20 09:30N 57°39' E 010°37'0 0.0
2017-Mar-20 07:33N 57°39' E 010°37'0 0.0
2017-Mar-20 05:30N 57°39' E 010°37'0 0.0
2017-Mar-19 21:30N 57°39' E 010°37'0 0.0
2017-Mar-19 20:24N 57°39' E 010°37'0 0.0
2017-Mar-19 18:24N 57°39' E 010°37'3 2.4
2017-Mar-19 17:15N 57°41' E 010°41'6 8.7
2017-Mar-19 16:33N 57°46' E 010°45'1310.7
2017-Mar-19 15:19N 57°44' E 010°20'11710.7
2017-Mar-19 04:26N 56°28' E 007°38'910.7
2017-Mar-19 03:33N 56°19' E 007°31'6210.3
2017-Mar-18 21:32N 55°22' E 006°48'1010.0
2017-Mar-18 20:34N 55°13' E 006°42'10 9.9
2017-Mar-18 19:33N 55°03' E 006°39'135 8.9
2017-Mar-18 04:21N 53°10' E 004°32'8 9.7
2017-Mar-18 03:31N 53°03' E 004°26'9 9.8
2017-Mar-18 02:33N 52°55' E 004°18'10 9.8
2017-Mar-18 01:33N 52°46' E 004°11'11 9.9
2017-Mar-18 00:25N 52°38' E 003°58'8310.6
2017-Mar-17 16:33N 51°31' E 002°39'5 5.2
2017-Mar-17 15:33N 51°26' E 002°40'0 0.0
2017-Mar-17 14:33N 51°26' E 002°40'0 0.1
2017-Mar-17 13:06N 51°26' E 002°40'0 0.1
2017-Mar-17 12:33N 51°26' E 002°40'0 0.0
2017-Mar-17 11:24N 51°26' E 002°40'0 0.0
2017-Mar-17 10:21N 51°26' E 002°40'0 0.0
2017-Mar-17 09:33N 51°26' E 002°40'0 0.0
2017-Mar-17 08:33N 51°26' E 002°40'0 0.0
2017-Mar-17 07:30N 51°26' E 002°40'0 0.0
2017-Mar-17 05:33N 51°26' E 002°40'0 0.0
2017-Mar-17 04:30N 51°26' E 002°40'0 0.0
2017-Mar-17 03:33N 51°26' E 002°40'0 0.0
2017-Mar-17 01:31N 51°26' E 002°40'0 0.1
2017-Mar-17 00:33N 51°26' E 002°40'0 0.0
2017-Mar-16 23:34N 51°26' E 002°40'2 2.5
2017-Mar-16 22:33N 51°24' E 002°37'9 8.6
2017-Mar-16 21:33N 51°20' E 002°24'9 9.2
2017-Mar-16 20:33N 51°16' E 002°11'1010.1
2017-Mar-16 19:32N 51°11' E 001°57'1010.3
2017-Mar-16 18:33N 51°05' E 001°44'  
Track history (hours):
 
Tides and Currents Weather Stations Pressure Air Temp Water Temp Dewpoint Dewpoint Depression Visibility Wind Speed Wind Dir Waves Ship Positions

#dbistima

Last reported at 2017-Mar-26 18:33 UTC. Time now 2017-Mar-26 20:58 UTC.
Position N 53°07' E 004°19'.

MMSI: 304010972.

Date/timePositionNaut miles runAvg speedWind from/ knotsBaromVisibWave heightAir tempDewpointWater temp
2017-Mar-26 18:33N 53°07' E 004°19'10 9.9
2017-Mar-26 17:33N 53°15' E 004°28'10 9.7
2017-Mar-26 16:33N 53°24' E 004°35'10 9.5
2017-Mar-26 15:27N 53°31' E 004°49'1011.3
2017-Mar-26 14:32N 53°34' E 005°05'1212.3
2017-Mar-26 13:32N 53°38' E 005°25'1212.2
2017-Mar-26 12:33N 53°42' E 005°44'1311.9
2017-Mar-26 11:27N 53°46' E 006°05'8110.2
2017-Mar-26 03:33N 53°60' E 008°20'1312.8
2017-Mar-26 02:33N 53°55' E 008°40'1111.4
2017-Mar-26 01:33N 53°51' E 008°58'7 6.8
2017-Mar-26 00:33N 53°54' E 009°09'7 6.9
2017-Mar-25 23:33N 53°59' E 009°17'55 5.5
2017-Mar-25 13:32N 54°33' E 010°31'1010.5
2017-Mar-25 12:33N 54°35' E 010°48'1110.6
2017-Mar-25 11:34N 54°36' E 011°06'1110.7
2017-Mar-25 10:34N 54°32' E 011°23'1110.7
2017-Mar-25 09:33N 54°28' E 011°40'1110.9
2017-Mar-25 08:34N 54°27' E 011°59'9 9.1
2017-Mar-25 07:34N 54°31' E 012°12'10 9.6
2017-Mar-25 06:33N 54°39' E 012°21'20 9.9
2017-Mar-25 04:33N 54°49' E 012°51'3110.3
2017-Mar-25 01:31N 54°60' E 013°42'1010.3
2017-Mar-25 00:33N 55°03' E 013°58'10 9.9
2017-Mar-24 23:32N 55°09' E 014°12'1010.4
2017-Mar-24 22:33N 55°17' E 014°23'1010.4
2017-Mar-24 21:33N 55°25' E 014°34'10 9.9
2017-Mar-24 20:33N 55°31' E 014°49'10 9.9
2017-Mar-24 19:34N 55°35' E 015°05'1010.2
2017-Mar-24 18:33N 55°41' E 015°20'10 9.9
2017-Mar-24 17:33N 55°45' E 015°35'10 9.6
2017-Mar-24 16:33N 55°50' E 015°50'10 9.6
2017-Mar-24 15:34N 55°55' E 016°05'9 9.4
2017-Mar-24 14:34N 55°60' E 016°20'9 9.4
2017-Mar-24 13:34N 56°04' E 016°34'9 9.3
2017-Mar-24 12:33N 56°11' E 016°47'10 9.7
2017-Mar-24 11:33N 56°20' E 016°53'  
2017-Mar-21 19:06N 55°59' E 016°34'811.4
2017-Mar-21 18:26N 55°55' E 016°22'1011.4
2017-Mar-21 17:34N 55°51' E 016°06'1111.2
2017-Mar-21 16:33N 55°46' E 015°48'1111.3
2017-Mar-21 15:34N 55°40' E 015°31'1211.7
2017-Mar-21 14:34N 55°35' E 015°12'1211.6
2017-Mar-21 13:33N 55°30' E 014°54'1211.2
2017-Mar-21 12:32N 55°23' E 014°38'1111.3
2017-Mar-21 11:32N 55°14' E 014°25'9 9.6
2017-Mar-21 10:33N 55°10' E 014°10'1311.2
2017-Mar-21 09:26N 55°11' E 013°48'3711.2
2017-Mar-21 06:07N 55°17' E 012°44'5 9.2
2017-Mar-21 05:34N 55°21' E 012°38'1110.8
2017-Mar-21 04:33N 55°32' E 012°42'1110.9
2017-Mar-21 03:33N 55°42' E 012°41'1110.6
2017-Mar-21 02:33N 55°53' E 012°39'1010.3
2017-Mar-21 01:34N 56°03' E 012°38'1010.3
2017-Mar-21 00:34N 56°10' E 012°24'1311.3
2017-Mar-20 23:26N 56°17' E 012°05'69 9.9
2017-Mar-20 16:32N 57°22' E 011°28'9 9.5
2017-Mar-20 15:33N 57°30' E 011°17'1110.7
2017-Mar-20 14:33N 57°34' E 010°58'1010.4
2017-Mar-20 13:33N 57°38' E 010°40'2 2.1
2017-Mar-20 12:33N 57°39' E 010°37'0 0.0
2017-Mar-20 11:30N 57°39' E 010°37'0 0.0
2017-Mar-20 10:30N 57°39' E 010°37'0 0.0
2017-Mar-20 09:30N 57°39' E 010°37'0 0.0
2017-Mar-20 07:33N 57°39' E 010°37'0 0.0
2017-Mar-20 05:30N 57°39' E 010°37'0 0.0
2017-Mar-19 21:30N 57°39' E 010°37'0 0.0
2017-Mar-19 20:24N 57°39' E 010°37'0 0.0
2017-Mar-19 18:24N 57°39' E 010°37'3 2.4
2017-Mar-19 17:15N 57°41' E 010°41'6 8.7
2017-Mar-19 16:33N 57°46' E 010°45'1310.7
2017-Mar-19 15:19N 57°44' E 010°20'11710.7
2017-Mar-19 04:26N 56°28' E 007°38'910.7
2017-Mar-19 03:33N 56°19' E 007°31'6210.3
2017-Mar-18 21:32N 55°22' E 006°48'1010.0
2017-Mar-18 20:34N 55°13' E 006°42'10 9.9
2017-Mar-18 19:33N 55°03' E 006°39'135 8.9
2017-Mar-18 04:21N 53°10' E 004°32'8 9.7
2017-Mar-18 03:31N 53°03' E 004°26'9 9.8
2017-Mar-18 02:33N 52°55' E 004°18'10 9.8
2017-Mar-18 01:33N 52°46' E 004°11'11 9.9
2017-Mar-18 00:25N 52°38' E 003°58'8310.6
2017-Mar-17 16:33N 51°31' E 002°39'5 5.2
2017-Mar-17 15:33N 51°26' E 002°40'0 0.0
2017-Mar-17 14:33N 51°26' E 002°40'0 0.1
2017-Mar-17 13:06N 51°26' E 002°40'0 0.1
2017-Mar-17 12:33N 51°26' E 002°40'0 0.0
2017-Mar-17 11:24N 51°26' E 002°40'0 0.0
2017-Mar-17 10:21N 51°26' E 002°40'0 0.0
2017-Mar-17 09:33N 51°26' E 002°40'0 0.0
2017-Mar-17 08:33N 51°26' E 002°40'0 0.0
2017-Mar-17 07:30N 51°26' E 002°40'0 0.0
2017-Mar-17 05:33N 51°26' E 002°40'0 0.0
2017-Mar-17 04:30N 51°26' E 002°40'0 0.0
2017-Mar-17 03:33N 51°26' E 002°40'0 0.0
2017-Mar-17 01:31N 51°26' E 002°40'0 0.1
2017-Mar-17 00:33N 51°26' E 002°40'0 0.0
2017-Mar-16 23:34N 51°26' E 002°40'2 2.5
2017-Mar-16 22:33N 51°24' E 002°37'9 8.6
2017-Mar-16 21:33N 51°20' E 002°24'9 9.2
2017-Mar-16 20:33N 51°16' E 002°11'1010.1
2017-Mar-16 19:32N 51°11' E 001°57'1010.3
2017-Mar-16 18:33N 51°05' E 001°44'  

Dump ship's entire track history